Flood From: 19-02-2018 10:30 Until: 20-02-2018 06:00 warning for: Flood Level: Yellow info button

Although rather usual in this region, locally or potentially dangerous phenomena are expected. (such as local winds, summer thunderstorms, rising streams or high waves) Be aware and pay attention to the latest weather updates, especially if you carry out activities exposed to weather or close to a stream or shoreline. 


Meteo18 Weather Cam more information Meteo18 Weather Cam


Thunder radar more information blitzortung!


Rain radar more information rain snow radar


Visit our other weather sites:

Template documentation
and downloads

And another site



Weather Underground History page Text

Daily Summary for January 28, 2017 Units:  Both    English   Metric
« Previous Day
Next Day »
Daily Weekly Monthly Yearly Custom
  High: Low: Average:
Temperature: TemperatureC °F /  -17.8 °C -0.4 °F /  -18 °C 5.4 °F /  -14.8 °C
Dew Point: DewpointC °F /  -17.8 °C -0.8 °F /  -18.2 °C 4 °F /  -15.6 °C
Humidity: Humidity % 69 % 91 %
Wind Speed: WindSpeedKMH mph /  0 km/h - 1.9 mph /  3.1 km/h
Wind Gust: WindSpeedGustKMH mph /  0 km/h - -
Wind:- - South
Pressure: PressurehPa in /  0 hPa 1014.4 in /  34347.6 hPa -
Precipitation: 7.6 in /  193.04 mm    
Historical Graphs
 
 
Tabular Data for January 28, 2017
Time Temperature Dew Point Pressure Wind Wind Speed Wind Gust Humidity Rainfall Rate (Hourly)
TemperatureC °F /  -17.8 °C DewpointC °F /  -17.8 °C PressurehPa in /  0 hPa Calm     Humidity % HourlyPrecipMM in /  0 mm
00:02 7.7 °F /  -13.5 °C 2.4 °F /  -16.4 °C 1014.4 in /  34347.6 hPa ESE 4.8 mph /  7.7 km/h 8.0 mph /  12.9 km/h 69 % 0.0 in /  0 mm
00:07 7.7 °F /  -13.5 °C 2.4 °F /  -16.4 °C 1014.4 in /  34347.6 hPa ESE 1.6 mph /  2.6 km/h 9.7 mph /  15.6 km/h 69 % 0.0 in /  0 mm
00:12 7.6 °F /  -13.6 °C 2.5 °F /  -16.4 °C 1014.4 in /  34347.6 hPa SE 1.6 mph /  2.6 km/h 9.7 mph /  15.6 km/h 70 % 0.0 in /  0 mm
00:17 7.5 °F /  -13.6 °C 2.4 °F /  -16.4 °C 1014.8 in /  34361.1 hPa SE 4.8 mph /  7.7 km/h 11.3 mph /  18.2 km/h 70 % 0.0 in /  0 mm
00:22 7.4 °F /  -13.7 °C 2.3 °F /  -16.5 °C 1014.8 in /  34361.1 hPa ESE 3.2 mph /  5.1 km/h 11.3 mph /  18.2 km/h 70 % 0.0 in /  0 mm
00:32 7.4 °F /  -13.7 °C 2.3 °F /  -16.5 °C 1014.4 in /  34347.6 hPa SE 1.6 mph /  2.6 km/h 9.7 mph /  15.6 km/h 70 % 0.0 in /  0 mm
00:42 7.6 °F /  -13.6 °C 2.5 °F /  -16.4 °C 1014.4 in /  34347.6 hPa ESE 1.6 mph /  2.6 km/h 8.0 mph /  12.9 km/h 70 % 0.0 in /  0 mm
00:52 7.5 °F /  -13.6 °C 2.4 °F /  -16.4 °C 1014.4 in /  34347.6 hPa Calm   8.0 mph /  12.9 km/h 70 % 0.0 in /  0 mm
00:57 7.4 °F /  -13.7 °C 2.3 °F /  -16.5 °C 1014.4 in /  34347.6 hPa Calm   6.4 mph /  10.3 km/h 70 % 0.0 in /  0 mm
01:02 7.4 °F /  -13.7 °C 2.3 °F /  -16.5 °C 1014.4 in /  34347.6 hPa Calm   4.8 mph /  7.7 km/h 70 % 0.0 in /  0 mm
01:12 7.5 °F /  -13.6 °C 2.4 °F /  -16.4 °C 1014.4 in /  34347.6 hPa Calm   4.8 mph /  7.7 km/h 70 % 0.0 in /  0 mm
01:17 7.6 °F /  -13.6 °C 2.5 °F /  -16.4 °C 1014.4 in /  34347.6 hPa East 4.8 mph /  7.7 km/h 4.8 mph /  7.7 km/h 70 % 0.0 in /  0 mm
01:22 7.6 °F /  -13.6 °C 2.7 °F /  -16.3 °C 1014.4 in /  34347.6 hPa SE 4.8 mph /  7.7 km/h 6.4 mph /  10.3 km/h 71 % 0.0 in /  0 mm
01:27 7.6 °F /  -13.6 °C 2.9 °F /  -16.2 °C 1014.4 in /  34347.6 hPa ESE 3.2 mph /  5.1 km/h 11.3 mph /  18.2 km/h 72 % 0.0 in /  0 mm
01:32 7.6 °F /  -13.6 °C 2.9 °F /  -16.2 °C 1014.4 in /  34347.6 hPa SE 3.2 mph /  5.1 km/h 11.3 mph /  18.2 km/h 72 % 0.0 in /  0 mm
01:37 7.6 °F /  -13.6 °C 3.1 °F /  -16.1 °C 1014.4 in /  34347.6 hPa SE 4.8 mph /  7.7 km/h 11.3 mph /  18.2 km/h 73 % 0.0 in /  0 mm
01:42 7.6 °F /  -13.6 °C 3.1 °F /  -16.1 °C 1014.4 in /  34347.6 hPa SSE 1.6 mph /  2.6 km/h 14.5 mph /  23.3 km/h 73 % 0.0 in /  0 mm
01:47 7.4 °F /  -13.7 °C 3.1 °F /  -16.1 °C 1014.4 in /  34347.6 hPa SE 1.6 mph /  2.6 km/h 14.5 mph /  23.3 km/h 74 % 0.0 in /  0 mm
01:52 7.4 °F /  -13.7 °C 3.3 °F /  -15.9 °C 1014.4 in /  34347.6 hPa SE 14.5 mph /  23.3 km/h 14.5 mph /  23.3 km/h 75 % 0.0 in /  0 mm
01:57 7.4 °F /  -13.7 °C 3.4 °F /  -15.9 °C 1014.4 in /  34347.6 hPa SSE 3.2 mph /  5.1 km/h 11.3 mph /  18.2 km/h 76 % 0.0 in /  0 mm
02:02 7.4 °F /  -13.7 °C 3.4 °F /  -15.9 °C 1014.4 in /  34347.6 hPa South 6.4 mph /  10.3 km/h 16.1 mph /  25.9 km/h 76 % 0.0 in /  0 mm
02:07 7.4 °F /  -13.7 °C 3.4 °F /  -15.9 °C 1014.4 in /  34347.6 hPa South 1.6 mph /  2.6 km/h 16.1 mph /  25.9 km/h 76 % 0.0 in /  0 mm
02:12 7.3 °F /  -13.7 °C 3.5 °F /  -15.8 °C 1014.8 in /  34361.1 hPa SW 3.2 mph /  5.1 km/h 16.1 mph /  25.9 km/h 77 % 0.0 in /  0 mm
02:17 7.2 °F /  -13.8 °C 3.4 °F /  -15.9 °C 1014.4 in /  34347.6 hPa Calm   11.3 mph /  18.2 km/h 77 % 0.0 in /  0 mm
02:22 7.1 °F /  -13.8 °C 3.5 °F /  -15.8 °C 1014.4 in /  34347.6 hPa ESE 6.4 mph /  10.3 km/h 11.3 mph /  18.2 km/h 78 % 0.0 in /  0 mm
02:27 7.0 °F /  -13.9 °C 3.6 °F /  -15.8 °C 1014.4 in /  34347.6 hPa SSE 1.6 mph /  2.6 km/h 11.3 mph /  18.2 km/h 79 % 0.0 in /  0 mm
02:32 7.1 °F /  -13.8 °C 3.5 °F /  -15.8 °C 1014.4 in /  34347.6 hPa ESE 4.8 mph /  7.7 km/h 11.3 mph /  18.2 km/h 78 % 0.0 in /  0 mm
02:37 7.1 °F /  -13.8 °C 3.5 °F /  -15.8 °C 1014.8 in /  34361.1 hPa South 6.4 mph /  10.3 km/h 8.0 mph /  12.9 km/h 78 % 0.0 in /  0 mm
02:42 7.1 °F /  -13.8 °C 3.7 °F /  -15.7 °C 1014.4 in /  34347.6 hPa South 3.2 mph /  5.1 km/h 8.0 mph /  12.9 km/h 79 % 0.0 in /  0 mm
02:47 7.1 °F /  -13.8 °C 3.7 °F /  -15.7 °C 1014.8 in /  34361.1 hPa South 1.6 mph /  2.6 km/h 8.0 mph /  12.9 km/h 79 % 0.0 in /  0 mm
02:52 7.1 °F /  -13.8 °C 3.5 °F /  -15.8 °C 1014.8 in /  34361.1 hPa SE 1.6 mph /  2.6 km/h 8.0 mph /  12.9 km/h 78 % 0.0 in /  0 mm
02:57 7.1 °F /  -13.8 °C 3.5 °F /  -15.8 °C 1014.8 in /  34361.1 hPa SSE 1.6 mph /  2.6 km/h 9.7 mph /  15.6 km/h 78 % 0.0 in /  0 mm
03:02 7.2 °F /  -13.8 °C 3.6 °F /  -15.8 °C 1014.8 in /  34361.1 hPa Calm   9.7 mph /  15.6 km/h 78 % 0.0 in /  0 mm
03:12 7.2 °F /  -13.8 °C 3.6 °F /  -15.8 °C 1014.8 in /  34361.1 hPa SSE 3.2 mph /  5.1 km/h 8.0 mph /  12.9 km/h 78 % 0.0 in /  0 mm
03:17 7.3 °F /  -13.7 °C 3.5 °F /  -15.8 °C 1014.8 in /  34361.1 hPa SE 3.2 mph /  5.1 km/h 6.4 mph /  10.3 km/h 77 % 0.0 in /  0 mm
03:22 7.3 °F /  -13.7 °C 3.5 °F /  -15.8 °C 1014.8 in /  34361.1 hPa SSE 3.2 mph /  5.1 km/h 9.7 mph /  15.6 km/h 77 % 0.0 in /  0 mm
03:27 7.3 °F /  -13.7 °C 3.5 °F /  -15.8 °C 1014.8 in /  34361.1 hPa ESE 3.2 mph /  5.1 km/h 9.7 mph /  15.6 km/h 77 % 0.0 in /  0 mm
03:32 7.3 °F /  -13.7 °C 3.7 °F /  -15.7 °C 1014.8 in /  34361.1 hPa ESE 4.8 mph /  7.7 km/h 9.7 mph /  15.6 km/h 78 % 0.0 in /  0 mm
03:37 7.3 °F /  -13.7 °C 3.7 °F /  -15.7 °C 1014.8 in /  34361.1 hPa ESE 6.4 mph /  10.3 km/h 9.7 mph /  15.6 km/h 78 % 0.0 in /  0 mm
03:42 7.3 °F /  -13.7 °C 3.7 °F /  -15.7 °C 1014.8 in /  34361.1 hPa ESE 4.8 mph /  7.7 km/h 11.3 mph /  18.2 km/h 78 % 0.0 in /  0 mm
03:47 7.2 °F /  -13.8 °C 3.6 °F /  -15.8 °C 1014.8 in /  34361.1 hPa ESE 3.2 mph /  5.1 km/h 11.3 mph /  18.2 km/h 78 % 0.0 in /  0 mm
03:57 7.3 °F /  -13.7 °C 3.5 °F /  -15.8 °C 1014.8 in /  34361.1 hPa SE 6.4 mph /  10.3 km/h 11.3 mph /  18.2 km/h 77 % 0.0 in /  0 mm
04:02 7.4 °F /  -13.7 °C 3.6 °F /  -15.8 °C 1014.8 in /  34361.1 hPa SE 4.8 mph /  7.7 km/h 12.9 mph /  20.8 km/h 77 % 0.0 in /  0 mm
04:17 7.3 °F /  -13.7 °C 3.9 °F /  -15.6 °C 1015.1 in /  34371.3 hPa ESE 6.4 mph /  10.3 km/h 14.5 mph /  23.3 km/h 79 % 0.0 in /  0 mm
04:22 7.2 °F /  -13.8 °C 4.0 °F /  -15.6 °C 1015.1 in /  34371.3 hPa SSE 1.6 mph /  2.6 km/h 14.5 mph /  23.3 km/h 80 % 0.0 in /  0 mm
04:27 7.1 °F /  -13.8 °C 3.9 °F /  -15.6 °C 1015.1 in /  34371.3 hPa SE 6.4 mph /  10.3 km/h 14.5 mph /  23.3 km/h 80 % 0.0 in /  0 mm
04:32 7.0 °F /  -13.9 °C 4.0 °F /  -15.6 °C 1015.1 in /  34371.3 hPa Calm   11.3 mph /  18.2 km/h 81 % 0.0 in /  0 mm
04:37 6.9 °F /  -13.9 °C 4.0 °F /  -15.6 °C 1015.1 in /  34371.3 hPa ESE 4.8 mph /  7.7 km/h 12.9 mph /  20.8 km/h 82 % 0.0 in /  0 mm
04:42 6.9 °F /  -13.9 °C 4.0 °F /  -15.6 °C 1015.1 in /  34371.3 hPa SSE 1.6 mph /  2.6 km/h 14.5 mph /  23.3 km/h 82 % 0.0 in /  0 mm
04:47 6.9 °F /  -13.9 °C 4.0 °F /  -15.6 °C 1015.1 in /  34371.3 hPa SE 3.2 mph /  5.1 km/h 14.5 mph /  23.3 km/h 82 % 0.0 in /  0 mm
04:52 6.8 °F /  -14 °C 4.1 °F /  -15.5 °C 1015.1 in /  34371.3 hPa South 1.6 mph /  2.6 km/h 14.5 mph /  23.3 km/h 83 % 0.0 in /  0 mm
04:57 6.8 °F /  -14 °C 4.1 °F /  -15.5 °C 1015.5 in /  34384.8 hPa SSW 3.2 mph /  5.1 km/h 14.5 mph /  23.3 km/h 83 % 0.0 in /  0 mm
05:02 6.7 °F /  -14.1 °C 4.0 °F /  -15.6 °C 1015.1 in /  34371.3 hPa Calm   8.0 mph /  12.9 km/h 83 % 0.0 in /  0 mm
05:07 6.7 °F /  -14.1 °C 4.0 °F /  -15.6 °C 1015.1 in /  34371.3 hPa SE 1.6 mph /  2.6 km/h 8.0 mph /  12.9 km/h 83 % 0.0 in /  0 mm
05:12 6.8 °F /  -14 °C 4.3 °F /  -15.4 °C 1015.1 in /  34371.3 hPa WSW 4.8 mph /  7.7 km/h 8.0 mph /  12.9 km/h 84 % 0.0 in /  0 mm
05:17 6.8 °F /  -14 °C 4.3 °F /  -15.4 °C 1015.1 in /  34371.3 hPa SSE 3.2 mph /  5.1 km/h 8.0 mph /  12.9 km/h 84 % 0.0 in /  0 mm
05:22 6.8 °F /  -14 °C 4.3 °F /  -15.4 °C 1015.5 in /  34384.8 hPa SE 1.6 mph /  2.6 km/h 9.7 mph /  15.6 km/h 84 % 0.3 in /  7.62 mm
05:27 6.8 °F /  -14 °C 4.5 °F /  -15.3 °C 1015.5 in /  34384.8 hPa SSE 4.8 mph /  7.7 km/h 9.7 mph /  15.6 km/h 85 % 0.3 in /  7.62 mm
05:32 6.8 °F /  -14 °C 4.5 °F /  -15.3 °C 1015.5 in /  34384.8 hPa South 1.6 mph /  2.6 km/h 9.7 mph /  15.6 km/h 85 % 0.3 in /  7.62 mm
05:42 6.7 °F /  -14.1 °C 4.5 °F /  -15.3 °C 1015.5 in /  34384.8 hPa SE 1.6 mph /  2.6 km/h 6.4 mph /  10.3 km/h 86 % 0.3 in /  7.62 mm
05:47 6.7 °F /  -14.1 °C 4.5 °F /  -15.3 °C 1015.5 in /  34384.8 hPa Calm   6.4 mph /  10.3 km/h 86 % 0.3 in /  7.62 mm
05:52 6.7 °F /  -14.1 °C 4.4 °F /  -15.3 °C 1015.5 in /  34384.8 hPa Calm   6.4 mph /  10.3 km/h 85 % 0.3 in /  7.62 mm
05:57 6.8 °F /  -14 °C 4.5 °F /  -15.3 °C 1015.5 in /  34384.8 hPa SE 1.6 mph /  2.6 km/h 6.4 mph /  10.3 km/h 85 % 0.3 in /  7.62 mm
06:02 6.7 °F /  -14.1 °C 4.4 °F /  -15.3 °C 1015.5 in /  34384.8 hPa SE 1.6 mph /  2.6 km/h 6.4 mph /  10.3 km/h 85 % 0.3 in /  7.62 mm
06:12 6.6 °F /  -14.1 °C 4.4 °F /  -15.3 °C 1015.8 in /  34395 hPa SSE 1.6 mph /  2.6 km/h 11.3 mph /  18.2 km/h 86 % 0.3 in /  7.62 mm
06:17 6.6 °F /  -14.1 °C 4.4 °F /  -15.3 °C 1015.8 in /  34395 hPa SW 6.4 mph /  10.3 km/h 11.3 mph /  18.2 km/h 86 % 0.3 in /  7.62 mm
06:22 6.5 °F /  -14.2 °C 4.5 °F /  -15.3 °C 1015.8 in /  34395 hPa South 1.6 mph /  2.6 km/h 6.4 mph /  10.3 km/h 87 % 0.0 in /  0 mm
06:32 6.4 °F /  -14.2 °C 4.6 °F /  -15.2 °C 1016.1 in /  34405.1 hPa SE 1.6 mph /  2.6 km/h 6.4 mph /  10.3 km/h 88 % 0.0 in /  0 mm
06:37 6.3 °F /  -14.3 °C 4.5 °F /  -15.3 °C 1016.1 in /  34405.1 hPa Calm   8.0 mph /  12.9 km/h 88 % 0.5 in /  12.7 mm
06:42 6.2 °F /  -14.3 °C 4.5 °F /  -15.3 °C 1016.1 in /  34405.1 hPa ESE 1.6 mph /  2.6 km/h 8.0 mph /  12.9 km/h 89 % 0.5 in /  12.7 mm
06:47 6.1 °F /  -14.4 °C 4.4 °F /  -15.3 °C 1016.1 in /  34405.1 hPa Calm   8.0 mph /  12.9 km/h 89 % 0.5 in /  12.7 mm
06:52 6.1 °F /  -14.4 °C 4.4 °F /  -15.3 °C 1016.1 in /  34405.1 hPa ESE 3.2 mph /  5.1 km/h 4.8 mph /  7.7 km/h 89 % 0.8 in /  20.32 mm
07:02 5.9 °F /  -14.5 °C 4.4 °F /  -15.3 °C 1016.1 in /  34405.1 hPa SE 3.2 mph /  5.1 km/h 4.8 mph /  7.7 km/h 90 % 0.8 in /  20.32 mm
07:12 5.8 °F /  -14.6 °C 4.4 °F /  -15.3 °C 1016.1 in /  34405.1 hPa SE 1.6 mph /  2.6 km/h 6.4 mph /  10.3 km/h 91 % 1.5 in /  38.1 mm
07:17 5.7 °F /  -14.6 °C 4.3 °F /  -15.4 °C 1016.1 in /  34405.1 hPa Calm   6.4 mph /  10.3 km/h 91 % 1.5 in /  38.1 mm
07:22 5.6 °F /  -14.7 °C 4.2 °F /  -15.4 °C 1016.1 in /  34405.1 hPa Calm   4.8 mph /  7.7 km/h 91 % 1.5 in /  38.1 mm
07:32 5.4 °F /  -14.8 °C 4.2 °F /  -15.4 °C 1016.1 in /  34405.1 hPa Calm   3.2 mph /  5.1 km/h 92 % 1.5 in /  38.1 mm
07:37 5.4 °F /  -14.8 °C 4.2 °F /  -15.4 °C 1016.1 in /  34405.1 hPa ENE 1.6 mph /  2.6 km/h 3.2 mph /  5.1 km/h 92 % 1.5 in /  38.1 mm
07:42 5.5 °F /  -14.7 °C 4.3 °F /  -15.4 °C 1016.1 in /  34405.1 hPa Calm   3.2 mph /  5.1 km/h 92 % 1.3 in /  33.02 mm
07:47 5.4 °F /  -14.8 °C 4.2 °F /  -15.4 °C 1016.1 in /  34405.1 hPa Calm   3.2 mph /  5.1 km/h 92 % 1.3 in /  33.02 mm
07:52 5.3 °F /  -14.8 °C 4.1 °F /  -15.5 °C 1016.1 in /  34405.1 hPa Calm   3.2 mph /  5.1 km/h 92 % 1.3 in /  33.02 mm
07:57 5.3 °F /  -14.8 °C 4.3 °F /  -15.4 °C 1016.1 in /  34405.1 hPa Calm   3.2 mph /  5.1 km/h 93 % 1.3 in /  33.02 mm
08:02 5.4 °F /  -14.8 °C 4.4 °F /  -15.3 °C 1016.5 in /  34418.7 hPa SSE 3.2 mph /  5.1 km/h 3.2 mph /  5.1 km/h 93 % 1.3 in /  33.02 mm
08:07 5.4 °F /  -14.8 °C 4.4 °F /  -15.3 °C 1016.5 in /  34418.7 hPa Calm   3.2 mph /  5.1 km/h 93 % 1.3 in /  33.02 mm
08:12 5.4 °F /  -14.8 °C 4.4 °F /  -15.3 °C 1016.5 in /  34418.7 hPa Calm   6.4 mph /  10.3 km/h 93 % 1.3 in /  33.02 mm
08:17 5.4 °F /  -14.8 °C 4.4 °F /  -15.3 °C 1016.5 in /  34418.7 hPa Calm   6.4 mph /  10.3 km/h 93 % 1.3 in /  33.02 mm
08:22 5.4 °F /  -14.8 °C 4.4 °F /  -15.3 °C 1016.8 in /  34428.8 hPa Calm   6.4 mph /  10.3 km/h 93 % 1.5 in /  38.1 mm
08:32 5.4 °F /  -14.8 °C 4.5 °F /  -15.3 °C 1016.8 in /  34428.8 hPa Calm   3.2 mph /  5.1 km/h 94 % 1.5 in /  38.1 mm
08:37 5.4 °F /  -14.8 °C 4.5 °F /  -15.3 °C 1016.8 in /  34428.8 hPa Calm   3.2 mph /  5.1 km/h 94 % 1.5 in /  38.1 mm
08:42 5.4 °F /  -14.8 °C 4.5 °F /  -15.3 °C 1016.8 in /  34428.8 hPa Calm   3.2 mph /  5.1 km/h 94 % 1.5 in /  38.1 mm
08:47 5.5 °F /  -14.7 °C 4.6 °F /  -15.2 °C 1016.8 in /  34428.8 hPa Calm   3.2 mph /  5.1 km/h 94 % 1.5 in /  38.1 mm
08:52 5.5 °F /  -14.7 °C 4.6 °F /  -15.2 °C 1016.8 in /  34428.8 hPa Calm   3.2 mph /  5.1 km/h 94 % 1.3 in /  33.02 mm
08:57 5.5 °F /  -14.7 °C 4.6 °F /  -15.2 °C 1017.2 in /  34442.4 hPa Calm   3.2 mph /  5.1 km/h 94 % 1.3 in /  33.02 mm
09:02 5.4 °F /  -14.8 °C 4.5 °F /  -15.3 °C 1016.8 in /  34428.8 hPa Calm   3.2 mph /  5.1 km/h 94 % 0.8 in /  20.32 mm
09:07 5.5 °F /  -14.7 °C 4.6 °F /  -15.2 °C 1017.2 in /  34442.4 hPa East 3.2 mph /  5.1 km/h 3.2 mph /  5.1 km/h 94 % 0.8 in /  20.32 mm
09:12 5.5 °F /  -14.7 °C 4.6 °F /  -15.2 °C 1017.2 in /  34442.4 hPa Calm   3.2 mph /  5.1 km/h 94 % 0.5 in /  12.7 mm
09:17 5.4 °F /  -14.8 °C 4.5 °F /  -15.3 °C 1017.2 in /  34442.4 hPa Calm   3.2 mph /  5.1 km/h 94 % 0.5 in /  12.7 mm
09:22 5.4 °F /  -14.8 °C 4.5 °F /  -15.3 °C 1017.2 in /  34442.4 hPa Calm   3.2 mph /  5.1 km/h 94 % 0.3 in /  7.62 mm
09:32 5.4 °F /  -14.8 °C 4.5 °F /  -15.3 °C 1017.2 in /  34442.4 hPa Calm   3.2 mph /  5.1 km/h 94 % 0.3 in /  7.62 mm
09:42 5.3 °F /  -14.8 °C 4.4 °F /  -15.3 °C 1017.2 in /  34442.4 hPa Calm   3.2 mph /  5.1 km/h 94 % 0.5 in /  12.7 mm
09:47 5.5 °F /  -14.7 °C 4.8 °F /  -15.1 °C 1017.2 in /  34442.4 hPa Calm   3.2 mph /  5.1 km/h 95 % 0.5 in /  12.7 mm
09:52 5.6 °F /  -14.7 °C 4.9 °F /  -15.1 °C 1017.2 in /  34442.4 hPa Calm   4.8 mph /  7.7 km/h 95 % 0.5 in /  12.7 mm
09:57 5.6 °F /  -14.7 °C 4.9 °F /  -15.1 °C 1017.2 in /  34442.4 hPa Calm   4.8 mph /  7.7 km/h 95 % 0.5 in /  12.7 mm
10:02 5.7 °F /  -14.6 °C 5.0 °F /  -15 °C 1017.2 in /  34442.4 hPa Calm   3.2 mph /  5.1 km/h 95 % 0.5 in /  12.7 mm
10:12 5.8 °F /  -14.6 °C 5.1 °F /  -14.9 °C 1017.2 in /  34442.4 hPa Calm   3.2 mph /  5.1 km/h 95 % 0.8 in /  20.32 mm
10:22 5.9 °F /  -14.5 °C 5.2 °F /  -14.9 °C 1017.5 in /  34452.6 hPa SE 1.6 mph /  2.6 km/h 1.6 mph /  2.6 km/h 95 % 0.8 in /  20.32 mm
10:32 5.9 °F /  -14.5 °C 5.2 °F /  -14.9 °C 1017.5 in /  34452.6 hPa SE 3.2 mph /  5.1 km/h 3.2 mph /  5.1 km/h 95 % 0.8 in /  20.32 mm
10:42 6.0 °F /  -14.4 °C 5.3 °F /  -14.8 °C 1017.5 in /  34452.6 hPa SSE 1.6 mph /  2.6 km/h 3.2 mph /  5.1 km/h 95 % 0.5 in /  12.7 mm
10:47 6.1 °F /  -14.4 °C 5.4 °F /  -14.8 °C 1017.5 in /  34452.6 hPa Calm   3.2 mph /  5.1 km/h 95 % 0.5 in /  12.7 mm
10:52 6.1 °F /  -14.4 °C 5.4 °F /  -14.8 °C 1017.8 in /  34462.7 hPa SSE 3.2 mph /  5.1 km/h 4.8 mph /  7.7 km/h 95 % 0.5 in /  12.7 mm
10:57 6.1 °F /  -14.4 °C 5.4 °F /  -14.8 °C 1017.8 in /  34462.7 hPa SSW 1.6 mph /  2.6 km/h 4.8 mph /  7.7 km/h 95 % 0.5 in /  12.7 mm
11:02 6.0 °F /  -14.4 °C 5.3 °F /  -14.8 °C 1017.8 in /  34462.7 hPa SW 3.2 mph /  5.1 km/h 8.0 mph /  12.9 km/h 95 % 0.5 in /  12.7 mm
11:12 6.0 °F /  -14.4 °C 5.3 °F /  -14.8 °C 1017.8 in /  34462.7 hPa SW 1.6 mph /  2.6 km/h 6.4 mph /  10.3 km/h 95 % 0.3 in /  7.62 mm
11:17 6.0 °F /  -14.4 °C 5.3 °F /  -14.8 °C 1017.8 in /  34462.7 hPa SW 4.8 mph /  7.7 km/h 6.4 mph /  10.3 km/h 95 % 0.3 in /  7.62 mm
11:22 6.1 °F /  -14.4 °C 5.5 °F /  -14.7 °C 1017.8 in /  34462.7 hPa WSW 1.6 mph /  2.6 km/h 4.8 mph /  7.7 km/h 96 % 0.0 in /  0 mm
11:27 6.1 °F /  -14.4 °C 5.5 °F /  -14.7 °C 1017.8 in /  34462.7 hPa SW 3.2 mph /  5.1 km/h 4.8 mph /  7.7 km/h 96 % 0.0 in /  0 mm
11:32 6.1 °F /  -14.4 °C 5.5 °F /  -14.7 °C 1017.8 in /  34462.7 hPa SW 1.6 mph /  2.6 km/h 6.4 mph /  10.3 km/h 96 % 0.0 in /  0 mm
11:37 6.2 °F /  -14.3 °C 5.6 °F /  -14.7 °C 1018.2 in /  34476.3 hPa Calm   6.4 mph /  10.3 km/h 96 % 0.0 in /  0 mm
11:42 6.2 °F /  -14.3 °C 5.6 °F /  -14.7 °C 1018.2 in /  34476.3 hPa Calm   6.4 mph /  10.3 km/h 96 % 0.0 in /  0 mm
11:47 6.2 °F /  -14.3 °C 5.5 °F /  -14.7 °C 1018.2 in /  34476.3 hPa Calm   6.4 mph /  10.3 km/h 95 % 0.0 in /  0 mm
11:52 6.2 °F /  -14.3 °C 5.5 °F /  -14.7 °C 1018.2 in /  34476.3 hPa Calm   4.8 mph /  7.7 km/h 95 % 0.3 in /  7.62 mm
12:02 6.1 °F /  -14.4 °C 5.5 °F /  -14.7 °C 1017.8 in /  34462.7 hPa SW 1.6 mph /  2.6 km/h 3.2 mph /  5.1 km/h 96 % 0.3 in /  7.62 mm
12:12 6.1 °F /  -14.4 °C 5.4 °F /  -14.8 °C 1017.8 in /  34462.7 hPa SSW 1.6 mph /  2.6 km/h 3.2 mph /  5.1 km/h 95 % 0.5 in /  12.7 mm
12:17 6.1 °F /  -14.4 °C 5.5 °F /  -14.7 °C 1017.8 in /  34462.7 hPa SSW 1.6 mph /  2.6 km/h 4.8 mph /  7.7 km/h 96 % 0.5 in /  12.7 mm
12:22 6.1 °F /  -14.4 °C 5.5 °F /  -14.7 °C 1018.2 in /  34476.3 hPa SSW 3.2 mph /  5.1 km/h 4.8 mph /  7.7 km/h 96 % 0.5 in /  12.7 mm
12:32 6.2 °F /  -14.3 °C 5.6 °F /  -14.7 °C 1018.2 in /  34476.3 hPa SSW 6.4 mph /  10.3 km/h 6.4 mph /  10.3 km/h 96 % 0.5 in /  12.7 mm
12:37 6.2 °F /  -14.3 °C 5.6 °F /  -14.7 °C 1018.2 in /  34476.3 hPa SSW 3.2 mph /  5.1 km/h 9.7 mph /  15.6 km/h 96 % 0.5 in /  12.7 mm
12:42 6.2 °F /  -14.3 °C 5.6 °F /  -14.7 °C 1018.2 in /  34476.3 hPa SSW 1.6 mph /  2.6 km/h 9.7 mph /  15.6 km/h 96 % 0.5 in /  12.7 mm
12:47 6.2 °F /  -14.3 °C 5.6 °F /  -14.7 °C 1018.2 in /  34476.3 hPa SSW 1.6 mph /  2.6 km/h 8.0 mph /  12.9 km/h 96 % 0.5 in /  12.7 mm
12:52 6.1 °F /  -14.4 °C 5.5 °F /  -14.7 °C 1017.8 in /  34462.7 hPa SW 1.6 mph /  2.6 km/h 8.0 mph /  12.9 km/h 96 % 0.5 in /  12.7 mm
12:57 6.1 °F /  -14.4 °C 5.5 °F /  -14.7 °C 1018.2 in /  34476.3 hPa SW 1.6 mph /  2.6 km/h 6.4 mph /  10.3 km/h 96 % 0.5 in /  12.7 mm
13:02 6.2 °F /  -14.3 °C 5.6 °F /  -14.7 °C 1017.8 in /  34462.7 hPa Calm   4.8 mph /  7.7 km/h 96 % 0.8 in /  20.32 mm
13:07 6.2 °F /  -14.3 °C 5.6 °F /  -14.7 °C 1017.8 in /  34462.7 hPa SW 1.6 mph /  2.6 km/h 4.8 mph /  7.7 km/h 96 % 0.8 in /  20.32 mm
13:12 6.1 °F /  -14.4 °C 5.5 °F /  -14.7 °C 1017.8 in /  34462.7 hPa SW 3.2 mph /  5.1 km/h 4.8 mph /  7.7 km/h 96 % 0.8 in /  20.32 mm
13:22 6.2 °F /  -14.3 °C 5.6 °F /  -14.7 °C 1017.8 in /  34462.7 hPa South 3.2 mph /  5.1 km/h 8.0 mph /  12.9 km/h 96 % 1.0 in /  25.4 mm
13:27 6.2 °F /  -14.3 °C 5.6 °F /  -14.7 °C 1017.8 in /  34462.7 hPa SSW 3.2 mph /  5.1 km/h 8.0 mph /  12.9 km/h 96 % 1.3 in /  33.02 mm
13:32 6.1 °F /  -14.4 °C 5.5 °F /  -14.7 °C 1017.8 in /  34462.7 hPa SSW 3.2 mph /  5.1 km/h 8.0 mph /  12.9 km/h 96 % 1.3 in /  33.02 mm
13:37 6.1 °F /  -14.4 °C 5.5 °F /  -14.7 °C 1017.8 in /  34462.7 hPa SSW 1.6 mph /  2.6 km/h 6.4 mph /  10.3 km/h 96 % 1.3 in /  33.02 mm
13:42 6.2 °F /  -14.3 °C 5.6 °F /  -14.7 °C 1017.8 in /  34462.7 hPa SSW 1.6 mph /  2.6 km/h 6.4 mph /  10.3 km/h 96 % 1.3 in /  33.02 mm
13:47 6.2 °F /  -14.3 °C 5.6 °F /  -14.7 °C 1017.8 in /  34462.7 hPa South 1.6 mph /  2.6 km/h 4.8 mph /  7.7 km/h 96 % 1.3 in /  33.02 mm
13:52 6.2 °F /  -14.3 °C 5.6 °F /  -14.7 °C 1017.8 in /  34462.7 hPa SSE 1.6 mph /  2.6 km/h 4.8 mph /  7.7 km/h 96 % 1.3 in /  33.02 mm
13:57 6.3 °F /  -14.3 °C 5.7 °F /  -14.6 °C 1017.8 in /  34462.7 hPa Calm   4.8 mph /  7.7 km/h 96 % 1.0 in /  25.4 mm
14:02 6.2 °F /  -14.3 °C 5.6 °F /  -14.7 °C 1017.8 in /  34462.7 hPa SSW 1.6 mph /  2.6 km/h 4.8 mph /  7.7 km/h 96 % 1.0 in /  25.4 mm
14:07 6.2 °F /  -14.3 °C 5.6 °F /  -14.7 °C 1017.8 in /  34462.7 hPa SSW 1.6 mph /  2.6 km/h 4.8 mph /  7.7 km/h 96 % 0.8 in /  20.32 mm
14:12 6.3 °F /  -14.3 °C 5.9 °F /  -14.5 °C 1017.8 in /  34462.7 hPa SSW 1.6 mph /  2.6 km/h 4.8 mph /  7.7 km/h 97 % 0.8 in /  20.32 mm
14:17 6.3 °F /  -14.3 °C 5.7 °F /  -14.6 °C 1017.8 in /  34462.7 hPa SW 3.2 mph /  5.1 km/h 6.4 mph /  10.3 km/h 96 % 0.8 in /  20.32 mm
14:22 6.3 °F /  -14.3 °C 5.7 °F /  -14.6 °C 1017.8 in /  34462.7 hPa SSW 4.8 mph /  7.7 km/h 6.4 mph /  10.3 km/h 96 % 0.5 in /  12.7 mm
14:27 6.4 °F /  -14.2 °C 5.8 °F /  -14.6 °C 1017.8 in /  34462.7 hPa SSW 3.2 mph /  5.1 km/h 6.4 mph /  10.3 km/h 96 % 0.8 in /  20.32 mm
14:32 6.4 °F /  -14.2 °C 6.0 °F /  -14.4 °C 1017.8 in /  34462.7 hPa SSW 1.6 mph /  2.6 km/h 6.4 mph /  10.3 km/h 97 % 0.8 in /  20.32 mm
14:37 6.6 °F /  -14.1 °C 6.2 °F /  -14.3 °C 1017.8 in /  34462.7 hPa SSW 3.2 mph /  5.1 km/h 8.0 mph /  12.9 km/h 97 % 0.5 in /  12.7 mm
14:42 6.6 °F /  -14.1 °C 6.2 °F /  -14.3 °C 1017.8 in /  34462.7 hPa South 1.6 mph /  2.6 km/h 8.0 mph /  12.9 km/h 97 % 0.8 in /  20.32 mm
14:47 6.6 °F /  -14.1 °C 6.0 °F /  -14.4 °C 1017.8 in /  34462.7 hPa South 3.2 mph /  5.1 km/h 8.0 mph /  12.9 km/h 96 % 0.8 in /  20.32 mm
14:52 6.6 °F /  -14.1 °C 6.0 °F /  -14.4 °C 1017.8 in /  34462.7 hPa SSW 3.2 mph /  5.1 km/h 8.0 mph /  12.9 km/h 96 % 0.8 in /  20.32 mm
14:57 6.6 °F /  -14.1 °C 6.0 °F /  -14.4 °C 1017.8 in /  34462.7 hPa SSW 1.6 mph /  2.6 km/h 3.2 mph /  5.1 km/h 96 % 0.8 in /  20.32 mm
15:02 6.6 °F /  -14.1 °C 6.2 °F /  -14.3 °C 1017.8 in /  34462.7 hPa SSW 4.8 mph /  7.7 km/h 4.8 mph /  7.7 km/h 97 % 0.8 in /  20.32 mm
15:12 6.7 °F /  -14.1 °C 6.3 °F /  -14.3 °C 1018.2 in /  34476.3 hPa SSW 3.2 mph /  5.1 km/h 6.4 mph /  10.3 km/h 97 % 0.8 in /  20.32 mm
15:17 6.7 °F /  -14.1 °C 6.3 °F /  -14.3 °C 1018.2 in /  34476.3 hPa South 3.2 mph /  5.1 km/h 8.0 mph /  12.9 km/h 97 % 0.8 in /  20.32 mm
15:22 6.7 °F /  -14.1 °C 6.3 °F /  -14.3 °C 1018.2 in /  34476.3 hPa SW 4.8 mph /  7.7 km/h 8.0 mph /  12.9 km/h 97 % 0.5 in /  12.7 mm
15:27 6.7 °F /  -14.1 °C 6.3 °F /  -14.3 °C 1018.5 in /  34486.4 hPa SW 3.2 mph /  5.1 km/h 9.7 mph /  15.6 km/h 97 % 0.5 in /  12.7 mm
15:32 6.7 °F /  -14.1 °C 6.3 °F /  -14.3 °C 1018.5 in /  34486.4 hPa SW 3.2 mph /  5.1 km/h 9.7 mph /  15.6 km/h 97 % 0.5 in /  12.7 mm
15:37 6.7 °F /  -14.1 °C 6.3 °F /  -14.3 °C 1018.5 in /  34486.4 hPa SW 6.4 mph /  10.3 km/h 6.4 mph /  10.3 km/h 97 % 0.5 in /  12.7 mm
15:42 6.8 °F /  -14 °C 6.4 °F /  -14.2 °C 1018.5 in /  34486.4 hPa SW 6.4 mph /  10.3 km/h 8.0 mph /  12.9 km/h 97 % 0.5 in /  12.7 mm
15:47 6.7 °F /  -14.1 °C 6.3 °F /  -14.3 °C 1018.5 in /  34486.4 hPa WSW 4.8 mph /  7.7 km/h 8.0 mph /  12.9 km/h 97 % 0.5 in /  12.7 mm
15:52 6.8 °F /  -14 °C 6.4 °F /  -14.2 °C 1018.5 in /  34486.4 hPa SW 4.8 mph /  7.7 km/h 8.0 mph /  12.9 km/h 97 % 0.5 in /  12.7 mm
15:57 6.7 °F /  -14.1 °C 6.3 °F /  -14.3 °C 1018.5 in /  34486.4 hPa SSW 3.2 mph /  5.1 km/h 9.7 mph /  15.6 km/h 97 % 0.3 in /  7.62 mm
16:02 6.7 °F /  -14.1 °C 6.3 °F /  -14.3 °C 1018.5 in /  34486.4 hPa SSW 1.6 mph /  2.6 km/h 9.7 mph /  15.6 km/h 97 % 0.3 in /  7.62 mm
16:07 6.7 °F /  -14.1 °C 6.3 °F /  -14.3 °C 1018.8 in /  34496.6 hPa SW 1.6 mph /  2.6 km/h 8.0 mph /  12.9 km/h 97 % 0.3 in /  7.62 mm
16:12 6.7 °F /  -14.1 °C 6.3 °F /  -14.3 °C 1018.8 in /  34496.6 hPa SW 3.2 mph /  5.1 km/h 8.0 mph /  12.9 km/h 97 % 0.3 in /  7.62 mm
16:17 6.7 °F /  -14.1 °C 6.3 °F /  -14.3 °C 1018.8 in /  34496.6 hPa SSW 4.8 mph /  7.7 km/h 8.0 mph /  12.9 km/h 97 % 0.0 in /  0 mm
16:22 6.8 °F /  -14 °C 6.4 °F /  -14.2 °C 1018.8 in /  34496.6 hPa SW 6.4 mph /  10.3 km/h 6.4 mph /  10.3 km/h 97 % 0.0 in /  0 mm
16:27 6.8 °F /  -14 °C 6.4 °F /  -14.2 °C 1018.8 in /  34496.6 hPa SW 8.0 mph /  12.9 km/h 8.0 mph /  12.9 km/h 97 % 0.0 in /  0 mm
16:32 6.8 °F /  -14 °C 6.4 °F /  -14.2 °C 1018.8 in /  34496.6 hPa SW 3.2 mph /  5.1 km/h 12.9 mph /  20.8 km/h 97 % 0.0 in /  0 mm
16:37 6.8 °F /  -14 °C 6.2 °F /  -14.3 °C 1018.8 in /  34496.6 hPa SW 4.8 mph /  7.7 km/h 12.9 mph /  20.8 km/h 96 % 0.0 in /  0 mm
16:42 6.8 °F /  -14 °C 6.2 °F /  -14.3 °C 1019.2 in /  34510.1 hPa SW 8.0 mph /  12.9 km/h 12.9 mph /  20.8 km/h 96 % 0.0 in /  0 mm
16:47 6.8 °F /  -14 °C 6.2 °F /  -14.3 °C 1019.2 in /  34510.1 hPa SSW 4.8 mph /  7.7 km/h 12.9 mph /  20.8 km/h 96 % 0.0 in /  0 mm
16:52 6.7 °F /  -14.1 °C 6.1 °F /  -14.4 °C 1019.2 in /  34510.1 hPa SW 3.2 mph /  5.1 km/h 9.7 mph /  15.6 km/h 96 % 0.0 in /  0 mm
16:57 6.6 °F /  -14.1 °C 6.0 °F /  -14.4 °C 1019.2 in /  34510.1 hPa SW 3.2 mph /  5.1 km/h 9.7 mph /  15.6 km/h 96 % 0.0 in /  0 mm
17:02 6.6 °F /  -14.1 °C 6.0 °F /  -14.4 °C 1019.2 in /  34510.1 hPa SW 3.2 mph /  5.1 km/h 8.0 mph /  12.9 km/h 96 % 0.0 in /  0 mm
17:07 6.6 °F /  -14.1 °C 6.0 °F /  -14.4 °C 1019.2 in /  34510.1 hPa SW 3.2 mph /  5.1 km/h 6.4 mph /  10.3 km/h 96 % 0.0 in /  0 mm
17:12 6.6 °F /  -14.1 °C 6.0 °F /  -14.4 °C 1019.2 in /  34510.1 hPa SW 3.2 mph /  5.1 km/h 6.4 mph /  10.3 km/h 96 % 0.0 in /  0 mm
17:17 6.5 °F /  -14.2 °C 5.9 °F /  -14.5 °C 1019.2 in /  34510.1 hPa SW 6.4 mph /  10.3 km/h 6.4 mph /  10.3 km/h 96 % 0.0 in /  0 mm
17:22 6.5 °F /  -14.2 °C 5.9 °F /  -14.5 °C 1019.2 in /  34510.1 hPa SW 4.8 mph /  7.7 km/h 6.4 mph /  10.3 km/h 96 % 0.0 in /  0 mm
17:27 6.4 °F /  -14.2 °C 5.8 °F /  -14.6 °C 1019.2 in /  34510.1 hPa SW 3.2 mph /  5.1 km/h 8.0 mph /  12.9 km/h 96 % 0.0 in /  0 mm
17:32 6.3 °F /  -14.3 °C 5.7 °F /  -14.6 °C 1019.5 in /  34520.3 hPa SW 3.2 mph /  5.1 km/h 8.0 mph /  12.9 km/h 96 % 0.0 in /  0 mm
17:37 6.3 °F /  -14.3 °C 5.7 °F /  -14.6 °C 1019.5 in /  34520.3 hPa SSW 3.2 mph /  5.1 km/h 8.0 mph /  12.9 km/h 96 % 0.0 in /  0 mm
17:42 6.2 °F /  -14.3 °C 5.6 °F /  -14.7 °C 1019.5 in /  34520.3 hPa SW 3.2 mph /  5.1 km/h 4.8 mph /  7.7 km/h 96 % 0.0 in /  0 mm
17:47 6.2 °F /  -14.3 °C 5.8 °F /  -14.6 °C 1019.5 in /  34520.3 hPa SSW 1.6 mph /  2.6 km/h 4.8 mph /  7.7 km/h 97 % 0.0 in /  0 mm
17:52 6.2 °F /  -14.3 °C 5.8 °F /  -14.6 °C 1019.5 in /  34520.3 hPa SSW 3.2 mph /  5.1 km/h 6.4 mph /  10.3 km/h 97 % 0.0 in /  0 mm
17:57 6.2 °F /  -14.3 °C 5.6 °F /  -14.7 °C 1019.9 in /  34533.8 hPa WSW 3.2 mph /  5.1 km/h 9.7 mph /  15.6 km/h 96 % 0.0 in /  0 mm
18:02 6.1 °F /  -14.4 °C 5.5 °F /  -14.7 °C 1019.9 in /  34533.8 hPa SW 3.2 mph /  5.1 km/h 9.7 mph /  15.6 km/h 96 % 0.0 in /  0 mm
18:12 6.1 °F /  -14.4 °C 5.7 °F /  -14.6 °C 1019.9 in /  34533.8 hPa SW 3.2 mph /  5.1 km/h 9.7 mph /  15.6 km/h 97 % 0.0 in /  0 mm
18:17 6.1 °F /  -14.4 °C 5.7 °F /  -14.6 °C 1019.9 in /  34533.8 hPa SW 3.2 mph /  5.1 km/h 6.4 mph /  10.3 km/h 97 % 0.0 in /  0 mm
18:22 6.0 °F /  -14.4 °C 5.6 °F /  -14.7 °C 1019.9 in /  34533.8 hPa WSW 3.2 mph /  5.1 km/h 6.4 mph /  10.3 km/h 97 % 0.0 in /  0 mm
18:32 5.8 °F /  -14.6 °C 5.2 °F /  -14.9 °C 1020.2 in /  34544 hPa Calm   6.4 mph /  10.3 km/h 96 % 0.0 in /  0 mm
18:42 5.1 °F /  -14.9 °C 4.4 °F /  -15.3 °C 1020.2 in /  34544 hPa Calm   3.2 mph /  5.1 km/h 95 % 0.0 in /  0 mm
18:47 4.8 °F /  -15.1 °C 4.2 °F /  -15.4 °C 1020.2 in /  34544 hPa Calm     96 % 0.0 in /  0 mm
18:57 4.6 °F /  -15.2 °C 4.0 °F /  -15.6 °C 1020.2 in /  34544 hPa Calm     96 % 0.0 in /  0 mm
19:02 4.6 °F /  -15.2 °C 4.2 °F /  -15.4 °C 1020.2 in /  34544 hPa Calm     97 % 0.0 in /  0 mm
19:07 4.6 °F /  -15.2 °C 4.2 °F /  -15.4 °C 1020.5 in /  34554.1 hPa Calm     97 % 0.0 in /  0 mm
19:12 4.6 °F /  -15.2 °C 4.2 °F /  -15.4 °C 1020.5 in /  34554.1 hPa Calm     97 % 0.0 in /  0 mm
19:17 4.3 °F /  -15.4 °C 3.7 °F /  -15.7 °C 1020.5 in /  34554.1 hPa Calm     96 % 0.0 in /  0 mm
19:22 4.0 °F /  -15.6 °C 3.4 °F /  -15.9 °C 1020.5 in /  34554.1 hPa Calm     96 % 0.0 in /  0 mm
19:32 3.5 °F /  -15.8 °C 2.9 °F /  -16.2 °C 1020.5 in /  34554.1 hPa Calm     96 % 0.0 in /  0 mm
19:37 3.3 °F /  -15.9 °C 2.7 °F /  -16.3 °C 1020.5 in /  34554.1 hPa Calm     96 % 0.0 in /  0 mm
19:42 3.2 °F /  -16 °C 2.6 °F /  -16.3 °C 1020.5 in /  34554.1 hPa Calm     96 % 0.0 in /  0 mm
19:47 3.1 °F /  -16.1 °C 2.5 °F /  -16.4 °C 1020.5 in /  34554.1 hPa Calm     96 % 0.0 in /  0 mm
19:52 2.9 °F /  -16.2 °C 2.3 °F /  -16.5 °C 1020.5 in /  34554.1 hPa Calm     96 % 0.0 in /  0 mm
19:57 2.7 °F /  -16.3 °C 2.1 °F /  -16.6 °C 1020.5 in /  34554.1 hPa Calm     96 % 0.0 in /  0 mm
20:02 2.6 °F /  -16.3 °C 2.0 °F /  -16.7 °C 1020.5 in /  34554.1 hPa Calm     96 % 0.0 in /  0 mm
20:07 2.4 °F /  -16.4 °C 1.8 °F /  -16.8 °C 1020.5 in /  34554.1 hPa Calm     96 % 0.0 in /  0 mm
20:12 2.3 °F /  -16.5 °C 1.7 °F /  -16.8 °C 1020.9 in /  34567.7 hPa Calm     96 % 0.0 in /  0 mm
20:17 2.2 °F /  -16.6 °C 1.8 °F /  -16.8 °C 1020.5 in /  34554.1 hPa Calm     97 % 0.0 in /  0 mm
20:22 2.4 °F /  -16.4 °C 2.0 °F /  -16.7 °C 1020.9 in /  34567.7 hPa Calm     97 % 0.0 in /  0 mm
20:27 2.6 °F /  -16.3 °C 2.2 °F /  -16.6 °C 1020.9 in /  34567.7 hPa Calm     97 % 0.0 in /  0 mm
20:32 2.5 °F /  -16.4 °C 2.1 °F /  -16.6 °C 1020.9 in /  34567.7 hPa Calm     97 % 0.0 in /  0 mm
20:37 2.6 °F /  -16.3 °C 2.2 °F /  -16.6 °C 1020.9 in /  34567.7 hPa Calm     97 % 0.0 in /  0 mm
20:42 2.6 °F /  -16.3 °C 2.2 °F /  -16.6 °C 1020.9 in /  34567.7 hPa Calm     97 % 0.0 in /  0 mm
20:47 2.6 °F /  -16.3 °C 2.2 °F /  -16.6 °C 1020.9 in /  34567.7 hPa Calm     97 % 0.3 in /  7.62 mm
20:52 2.5 °F /  -16.4 °C 2.1 °F /  -16.6 °C 1021.2 in /  34577.8 hPa Calm     97 % 0.3 in /  7.62 mm
20:57 2.4 °F /  -16.4 °C 2.0 °F /  -16.7 °C 1021.2 in /  34577.8 hPa Calm     97 % 0.3 in /  7.62 mm
21:02 2.4 °F /  -16.4 °C 2.0 °F /  -16.7 °C 1021.2 in /  34577.8 hPa Calm     97 % 0.3 in /  7.62 mm
21:07 2.3 °F /  -16.5 °C 1.9 °F /  -16.7 °C 1021.2 in /  34577.8 hPa Calm     97 % 0.3 in /  7.62 mm
21:12 2.2 °F /  -16.6 °C 1.8 °F /  -16.8 °C 1021.2 in /  34577.8 hPa Calm     97 % 0.3 in /  7.62 mm
21:17 2.1 °F /  -16.6 °C 1.7 °F /  -16.8 °C 1021.2 in /  34577.8 hPa Calm     97 % 0.3 in /  7.62 mm
21:22 1.8 °F /  -16.8 °C 1.4 °F /  -17 °C 1021.2 in /  34577.8 hPa Calm     97 % 0.3 in /  7.62 mm
21:27 1.8 °F /  -16.8 °C 1.4 °F /  -17 °C 1021.2 in /  34577.8 hPa Calm     97 % 0.3 in /  7.62 mm
21:32 1.7 °F /  -16.8 °C 1.3 °F /  -17.1 °C 1021.2 in /  34577.8 hPa Calm     97 % 0.3 in /  7.62 mm
21:37 1.7 °F /  -16.8 °C 1.3 °F /  -17.1 °C 1021.6 in /  34591.4 hPa Calm     97 % 0.0 in /  0 mm
21:47 1.4 °F /  -17 °C 1.0 °F /  -17.2 °C 1021.6 in /  34591.4 hPa Calm     97 % 0.0 in /  0 mm
21:52 1.4 °F /  -17 °C 1.0 °F /  -17.2 °C 1021.6 in /  34591.4 hPa Calm     97 % 0.0 in /  0 mm
21:57 1.6 °F /  -16.9 °C 1.2 °F /  -17.1 °C 1021.6 in /  34591.4 hPa Calm     97 % 0.0 in /  0 mm
22:02 1.3 °F /  -17.1 °C 0.9 °F /  -17.3 °C 1021.6 in /  34591.4 hPa Calm     97 % 0.0 in /  0 mm
22:12 0.9 °F /  -17.3 °C 0.5 °F /  -17.5 °C 1021.6 in /  34591.4 hPa Calm     97 % 0.0 in /  0 mm
22:17 0.8 °F /  -17.3 °C 0.4 °F /  -17.6 °C 1021.6 in /  34591.4 hPa Calm     97 % 0.0 in /  0 mm
22:22 0.6 °F /  -17.4 °C 0.2 °F /  -17.7 °C 1021.6 in /  34591.4 hPa Calm     97 % 0.0 in /  0 mm
22:27 0.6 °F /  -17.4 °C 0.2 °F /  -17.7 °C 1021.6 in /  34591.4 hPa Calm     97 % 0.0 in /  0 mm
22:32 0.5 °F /  -17.5 °C 0.1 °F /  -17.7 °C 1021.6 in /  34591.4 hPa Calm     97 % 0.0 in /  0 mm
22:37 0.4 °F /  -17.6 °C 0.0 °F /  -17.8 °C 1021.6 in /  34591.4 hPa Calm     97 % 0.0 in /  0 mm
22:42 0.4 °F /  -17.6 °C 0.0 °F /  -17.8 °C 1021.9 in /  34601.5 hPa Calm     97 % 0.0 in /  0 mm
22:47 0.4 °F /  -17.6 °C 0.0 °F /  -17.8 °C 1021.6 in /  34591.4 hPa Calm     97 % 0.0 in /  0 mm
22:52 0.4 °F /  -17.6 °C 0.0 °F /  -17.8 °C 1021.9 in /  34601.5 hPa Calm     97 % 0.0 in /  0 mm
22:57 0.5 °F /  -17.5 °C 0.1 °F /  -17.7 °C 1021.9 in /  34601.5 hPa Calm     97 % 0.0 in /  0 mm
23:02 0.4 °F /  -17.6 °C 0.0 °F /  -17.8 °C 1021.9 in /  34601.5 hPa Calm     97 % 0.0 in /  0 mm
23:07 0.2 °F /  -17.7 °C -0.2 °F /  -17.9 °C 1021.9 in /  34601.5 hPa Calm     97 % 0.0 in /  0 mm
23:12 0.1 °F /  -17.7 °C -0.3 °F /  -17.9 °C 1021.9 in /  34601.5 hPa Calm     97 % 0.0 in /  0 mm
23:17 -0.1 °F /  -17.8 °C -0.5 °F /  -18.1 °C 1021.9 in /  34601.5 hPa Calm     97 % 0.0 in /  0 mm
23:22 -0.1 °F /  -17.8 °C -0.5 °F /  -18.1 °C 1021.9 in /  34601.5 hPa Calm     97 % 0.0 in /  0 mm
23:32 -0.1 °F /  -17.8 °C -0.5 °F /  -18.1 °C 1021.9 in /  34601.5 hPa Calm     97 % 0.0 in /  0 mm
23:37 -0.1 °F /  -17.8 °C -0.5 °F /  -18.1 °C 1021.9 in /  34601.5 hPa Calm     97 % 0.0 in /  0 mm
23:42 -0.2 °F /  -17.9 °C -0.6 °F /  -18.1 °C 1021.9 in /  34601.5 hPa Calm     97 % 0.0 in /  0 mm
23:52 -0.4 °F /  -18 °C -0.8 °F /  -18.2 °C 1021.9 in /  34601.5 hPa Calm   1.6 mph /  2.6 km/h 97 % 0.0 in /  0 mm
23:57 -0.4 °F /  -18 °C -0.8 °F /  -18.2 °C 1021.9 in /  34601.5 hPa Calm   1.6 mph /  2.6 km/h 97 % 0.0 in /  0 mm
Meteo18
Compliments of Weather Underground - 4 mb

Script developed by  Jim McMurry - jmcmurry@mwt.net Adapted for the template by  Wim van der Kuil - Leuven-Template.eu

You find our weather info also at:

European Weather Network

Weather Underground

Equipment we use:

Weather-station
Davis Vue

Weather-program
Meteobridge

Weather-server
Raspberry PI 2 B+

Provider
1 and 1

Davis Vue

Meteobridge

Raspberry PI 2 B+

1 and 1